createdAt,value
2023-02-28T00:00:23.838Z,100697.17
2023-02-28T00:02:52.376Z,100704.36
2023-02-28T00:05:22.841Z,100708.79
2023-02-28T00:07:51.613Z,100712.46
2023-02-28T00:10:24.096Z,100718.20
2023-02-28T00:12:53.380Z,100720.00
2023-02-28T00:15:23.926Z,100718.02
2023-02-28T00:17:52.548Z,100725.05
2023-02-28T00:20:22.177Z,100727.20
2023-02-28T00:22:51.903Z,100731.29
2023-02-28T00:25:23.395Z,100738.51
2023-02-28T00:27:52.043Z,100751.81
2023-02-28T00:30:24.285Z,100753.30
2023-02-28T00:32:53.852Z,100752.98
2023-02-28T00:35:23.028Z,100757.56
2023-02-28T00:37:51.496Z,100763.98
2023-02-28T00:40:20.394Z,100761.33
2023-02-28T00:42:48.810Z,100763.92
2023-02-28T00:45:17.343Z,100764.42
2023-02-28T00:47:47.663Z,100766.79
2023-02-28T00:50:20.352Z,100769.01
2023-02-28T00:52:51.625Z,100771.33
2023-02-28T00:55:20.372Z,100771.42
2023-02-28T00:57:50.211Z,100768.15
2023-02-28T01:00:19.980Z,100764.70
2023-02-28T01:02:48.406Z,100766.48
2023-02-28T01:05:17.033Z,100763.64
2023-02-28T01:07:47.547Z,100769.59
2023-02-28T01:10:15.967Z,100770.28
2023-02-28T01:12:44.737Z,100768.89
2023-02-28T01:15:13.902Z,100772.41
2023-02-28T01:17:42.408Z,100776.30
2023-02-28T01:20:11.581Z,100774.07
2023-02-28T01:22:40.276Z,100774.71
2023-02-28T01:25:09.692Z,100771.23
2023-02-28T01:27:38.261Z,100767.90
2023-02-28T01:30:10.850Z,100766.16
2023-02-28T01:32:40.083Z,100766.46
2023-02-28T01:35:08.680Z,100767.78
2023-02-28T01:37:38.456Z,100765.84
2023-02-28T01:40:07.629Z,100765.09
2023-02-28T01:42:36.351Z,100765.55
2023-02-28T01:45:08.022Z,100771.41
2023-02-28T01:47:39.847Z,100775.39
2023-02-28T01:50:13.920Z,100789.54
2023-02-28T01:52:42.786Z,100795.29
2023-02-28T01:55:12.901Z,100796.37
2023-02-28T01:57:48.050Z,100800.34
2023-02-28T02:00:18.968Z,100804.68
2023-02-28T02:02:53.128Z,100811.14
2023-02-28T02:05:26.986Z,100812.80
2023-02-28T02:07:56.485Z,100809.19
2023-02-28T02:10:36.666Z,100812.39
2023-02-28T02:13:26.845Z,100820.67
2023-02-28T02:15:55.322Z,100835.95
2023-02-28T02:18:48.003Z,100847.79
2023-02-28T02:21:55.916Z,100854.93
2023-02-28T02:25:03.780Z,100852.13
2023-02-28T02:27:42.254Z,100857.40
2023-02-28T02:30:29.359Z,100862.98
2023-02-28T02:33:39.389Z,100874.70
2023-02-28T02:36:28.775Z,100876.80
2023-02-28T02:39:17.726Z,100875.05
2023-02-28T02:41:54.737Z,100877.75
2023-02-28T02:44:25.667Z,100880.44
2023-02-28T02:46:56.836Z,100883.70
2023-02-28T02:49:27.594Z,100888.21
2023-02-28T02:51:57.536Z,100893.91
2023-02-28T02:54:30.541Z,100894.16
2023-02-28T02:57:01.897Z,100897.33
2023-02-28T02:59:30.437Z,100894.45
2023-02-28T03:02:03.084Z,100903.94
2023-02-28T03:04:37.614Z,100906.94
2023-02-28T03:07:06.263Z,100906.48
2023-02-28T03:09:39.759Z,100914.20
2023-02-28T03:12:12.829Z,100919.50
2023-02-28T03:15:05.307Z,100922.58
2023-02-28T03:17:46.952Z,100919.74
2023-02-28T03:20:17.268Z,100917.58
2023-02-28T03:23:07.457Z,100918.63
2023-02-28T03:25:44.909Z,100919.25
2023-02-28T03:28:19.491Z,100922.14
2023-02-28T03:30:55.891Z,100926.88
2023-02-28T03:33:42.103Z,100930.83
2023-02-28T03:36:13.694Z,100935.98
2023-02-28T03:38:54.620Z,100932.98
2023-02-28T03:41:32.864Z,100941.60
2023-02-28T03:44:07.168Z,100947.23
2023-02-28T03:46:39.709Z,100939.52
2023-02-28T03:49:18.136Z,100936.31
2023-02-28T03:51:46.567Z,100933.94
2023-02-28T03:54:36.809Z,100935.34
2023-02-28T03:57:12.132Z,100935.98
2023-02-28T03:59:46.476Z,100939.17
2023-02-28T04:02:15.171Z,100954.64
2023-02-28T04:04:49.811Z,100965.07
2023-02-28T04:07:18.509Z,100968.51
2023-02-28T04:09:46.852Z,100970.04
2023-02-28T04:12:18.674Z,100972.64
2023-02-28T04:14:47.493Z,100976.47
2023-02-28T04:17:20.212Z,100971.05
2023-02-28T04:19:49.021Z,100968.28
2023-02-28T04:22:19.017Z,100968.05
2023-02-28T04:24:47.653Z,100964.50
2023-02-28T04:27:17.010Z,100965.06
2023-02-28T04:29:45.746Z,100959.27
2023-02-28T04:32:14.568Z,100961.52
2023-02-28T04:34:44.006Z,100967.83
2023-02-28T04:37:14.397Z,100974.28
2023-02-28T04:39:44.113Z,100979.20
2023-02-28T04:42:12.771Z,100987.67
2023-02-28T04:44:42.448Z,100989.21
2023-02-28T04:47:11.913Z,100989.95
2023-02-28T04:49:40.576Z,100993.25
2023-02-28T04:52:09.051Z,100994.44
2023-02-28T04:54:42.572Z,100996.88
2023-02-28T04:57:11.613Z,100999.88
2023-02-28T04:59:39.956Z,101004.39
2023-02-28T05:02:08.734Z,101006.66
2023-02-28T05:04:37.343Z,101010.77
2023-02-28T05:07:05.926Z,101014.71
2023-02-28T05:09:34.635Z,101016.09
2023-02-28T05:12:07.631Z,101014.69
2023-02-28T05:14:38.251Z,101017.73
2023-02-28T05:17:06.780Z,101021.50
2023-02-28T05:19:36.668Z,101021.38
2023-02-28T05:22:05.051Z,101025.89
2023-02-28T05:24:41.164Z,101025.09
2023-02-28T05:27:09.713Z,101033.09
2023-02-28T05:29:42.864Z,101036.50
2023-02-28T05:32:12.624Z,101041.13
2023-02-28T05:34:41.157Z,101047.80
2023-02-28T05:37:13.163Z,101049.48
2023-02-28T05:39:42.493Z,101049.77
2023-02-28T05:42:10.941Z,101043.05
2023-02-28T05:44:41.711Z,101037.33
2023-02-28T05:47:11.743Z,101039.80
2023-02-28T05:49:41.318Z,101054.83
2023-02-28T05:52:09.715Z,101062.77
2023-02-28T05:54:38.074Z,101065.17
2023-02-28T05:57:15.485Z,101066.79
2023-02-28T05:59:51.706Z,101076.20
2023-02-28T06:02:20.200Z,101078.38
2023-02-28T06:04:49.042Z,101080.67
2023-02-28T06:07:18.810Z,101081.27
2023-02-28T06:09:47.624Z,101086.38
2023-02-28T06:12:16.479Z,101090.23
2023-02-28T06:14:44.700Z,101096.10
2023-02-28T06:17:13.062Z,101098.20
2023-02-28T06:19:43.117Z,101107.59
2023-02-28T06:22:11.364Z,101112.23
2023-02-28T06:24:39.664Z,101114.96
2023-02-28T06:27:08.169Z,101113.54
2023-02-28T06:29:36.678Z,101116.84
2023-02-28T06:32:05.267Z,101120.77
2023-02-28T06:34:36.230Z,101124.80
2023-02-28T06:37:04.494Z,101131.94
2023-02-28T06:39:39.204Z,101127.29
2023-02-28T06:42:07.410Z,101126.41
2023-02-28T06:44:39.329Z,101128.85
2023-02-28T06:47:07.615Z,101135.55
2023-02-28T06:49:38.605Z,101137.00
2023-02-28T06:52:10.975Z,101132.73
2023-02-28T06:54:39.171Z,101131.88
2023-02-28T06:57:07.374Z,101133.84
2023-02-28T06:59:36.541Z,101138.08
2023-02-28T07:02:07.671Z,101139.13
2023-02-28T07:04:36.385Z,101133.29
2023-02-28T07:07:05.071Z,101125.70
2023-02-28T07:09:33.382Z,101125.81
2023-02-28T07:12:01.710Z,101127.39
2023-02-28T07:14:30.861Z,101127.48
2023-02-28T07:16:59.248Z,101136.45
2023-02-28T07:19:29.401Z,101138.79
2023-02-28T07:21:57.730Z,101139.36
2023-02-28T07:24:29.440Z,101143.81
2023-02-28T07:26:57.927Z,101148.65
2023-02-28T07:29:26.726Z,101145.59
2023-02-28T07:31:56.098Z,101149.41
2023-02-28T07:34:25.109Z,101145.98
2023-02-28T07:36:56.258Z,101143.00
2023-02-28T07:39:24.627Z,101137.13
2023-02-28T07:41:52.954Z,101138.02
2023-02-28T07:44:25.290Z,101133.55
2023-02-28T07:46:54.125Z,101136.48
2023-02-28T07:49:24.110Z,101133.86
2023-02-28T07:51:52.294Z,101129.80
2023-02-28T07:54:20.581Z,101130.41
2023-02-28T07:56:48.911Z,101130.25
2023-02-28T07:59:17.356Z,101134.45
2023-02-28T08:01:45.949Z,101138.98
2023-02-28T08:04:14.227Z,101141.46
2023-02-28T08:06:43.026Z,101146.59
2023-02-28T08:09:16.370Z,101148.70
2023-02-28T08:11:47.225Z,101153.31
2023-02-28T08:14:15.571Z,101153.92
2023-02-28T08:16:47.351Z,101153.11
2023-02-28T08:19:16.030Z,101159.02
2023-02-28T08:21:44.363Z,101155.73
2023-02-28T08:24:12.793Z,101156.34
2023-02-28T08:26:41.099Z,101159.80
2023-02-28T08:29:12.654Z,101162.22
2023-02-28T08:31:41.115Z,101164.42
2023-02-28T08:34:10.174Z,101163.52
2023-02-28T08:36:39.061Z,101164.02
2023-02-28T08:39:07.811Z,101165.95
2023-02-28T08:41:36.468Z,101173.41
2023-02-28T08:44:04.737Z,101175.73
2023-02-28T08:46:33.298Z,101179.48
2023-02-28T08:49:03.043Z,101184.95
2023-02-28T08:51:31.955Z,101182.13
2023-02-28T08:54:01.184Z,101182.85
2023-02-28T08:56:34.175Z,101179.89
2023-02-28T08:59:02.453Z,101177.16
2023-02-28T09:01:31.234Z,101177.49
2023-02-28T09:04:00.561Z,101183.05
2023-02-28T09:06:29.943Z,101187.03
2023-02-28T09:09:02.666Z,101194.91
2023-02-28T09:11:31.107Z,101196.39
2023-02-28T09:14:07.457Z,101193.30
2023-02-28T09:16:36.498Z,101188.47
2023-02-28T09:19:04.876Z,101191.02
2023-02-28T09:21:34.892Z,101195.83
2023-02-28T09:24:03.125Z,101197.20
2023-02-28T09:26:42.802Z,101203.93
2023-02-28T09:29:17.914Z,101211.45
2023-02-28T09:31:49.490Z,101211.88
2023-02-28T09:34:18.742Z,101222.16
2023-02-28T09:36:47.704Z,101227.45
2023-02-28T09:39:17.657Z,101229.77
2023-02-28T09:41:51.533Z,101230.79
2023-02-28T09:44:26.318Z,101227.33
2023-02-28T09:47:21.776Z,101221.67
2023-02-28T09:49:50.040Z,101223.80
2023-02-28T09:52:19.207Z,101225.13
2023-02-28T09:54:48.540Z,101222.99
2023-02-28T09:57:26.334Z,101222.10
2023-02-28T09:59:57.596Z,101222.81
2023-02-28T10:02:46.380Z,101225.64
2023-02-28T10:05:28.588Z,101223.77
2023-02-28T10:08:02.944Z,101228.05
2023-02-28T10:10:42.073Z,101218.95
2023-02-28T10:13:22.694Z,101209.94
2023-02-28T10:15:52.539Z,101207.29
2023-02-28T10:18:22.693Z,101200.48
2023-02-28T10:20:51.028Z,101195.02
2023-02-28T10:23:23.575Z,101190.77
2023-02-28T10:25:55.466Z,101190.48
2023-02-28T10:28:25.192Z,101192.47
2023-02-28T10:30:53.960Z,101187.86
2023-02-28T10:33:29.254Z,101186.33
2023-02-28T10:35:59.047Z,101180.05
2023-02-28T10:38:33.535Z,101171.29
2023-02-28T10:41:12.166Z,101171.94
2023-02-28T10:43:42.013Z,101173.55
2023-02-28T10:46:15.357Z,101168.52
2023-02-28T10:48:51.179Z,101172.71
2023-02-28T10:51:20.111Z,101170.93
2023-02-28T10:54:01.173Z,101167.78
2023-02-28T10:56:31.066Z,101165.80
2023-02-28T10:59:01.048Z,101165.33
2023-02-28T11:01:42.345Z,101169.34
2023-02-28T11:04:39.130Z,101166.19
2023-02-28T11:07:15.622Z,101168.36
2023-02-28T11:09:46.097Z,101166.47
2023-02-28T11:12:27.347Z,101162.36
2023-02-28T11:14:57.573Z,101161.86
2023-02-28T11:17:27.004Z,101162.20
2023-02-28T11:19:56.671Z,101162.70
2023-02-28T11:22:25.953Z,101164.67
2023-02-28T11:24:54.755Z,101157.77
2023-02-28T11:27:34.921Z,101162.02
2023-02-28T11:30:07.014Z,101164.20
2023-02-28T11:32:35.815Z,101164.23
2023-02-28T11:35:05.206Z,101155.81
2023-02-28T11:37:34.313Z,101154.56
2023-02-28T11:40:02.767Z,101154.68
2023-02-28T11:42:49.970Z,101158.20
2023-02-28T11:45:21.596Z,101156.10
2023-02-28T11:47:53.830Z,101159.57
2023-02-28T11:50:27.018Z,101159.09
2023-02-28T11:53:01.542Z,101155.48
2023-02-28T11:55:39.230Z,101154.90
2023-02-28T11:58:34.315Z,101151.99
2023-02-28T12:01:08.674Z,101145.92
2023-02-28T12:03:43.956Z,101143.52
2023-02-28T12:06:12.740Z,101142.14
2023-02-28T12:08:46.058Z,101139.96
2023-02-28T12:11:33.118Z,101138.27
2023-02-28T12:14:17.096Z,101138.21
2023-02-28T12:16:47.578Z,101148.92
2023-02-28T12:19:35.474Z,101139.85
2023-02-28T12:22:06.940Z,101139.37
2023-02-28T12:24:40.453Z,101137.02
2023-02-28T12:27:13.892Z,101133.66
2023-02-28T12:29:53.891Z,101131.97
2023-02-28T12:32:31.641Z,101134.78
2023-02-28T12:35:02.765Z,101146.76
2023-02-28T12:37:33.041Z,101145.93
2023-02-28T12:40:03.011Z,101149.75
2023-02-28T12:42:32.381Z,101148.39
2023-02-28T12:45:27.757Z,101147.38
2023-02-28T12:48:00.887Z,101146.71
2023-02-28T12:50:32.573Z,101145.83
2023-02-28T12:53:05.026Z,101144.38
2023-02-28T12:55:41.661Z,101145.41
2023-02-28T12:58:29.881Z,101144.02
2023-02-28T13:01:06.383Z,101145.79
2023-02-28T13:03:53.809Z,101141.47
2023-02-28T13:06:40.993Z,101140.52
2023-02-28T13:09:16.744Z,101139.13
2023-02-28T13:11:48.676Z,101130.48
2023-02-28T13:14:23.973Z,101132.25
2023-02-28T13:16:58.756Z,101131.53
2023-02-28T13:19:27.900Z,101130.77
2023-02-28T13:21:56.411Z,101128.73
2023-02-28T13:24:50.599Z,101129.10
2023-02-28T13:27:25.694Z,101126.14
2023-02-28T13:29:53.996Z,101123.24
2023-02-28T13:32:35.284Z,101117.59
2023-02-28T13:35:05.631Z,101121.30
2023-02-28T13:37:34.706Z,101120.50
2023-02-28T13:40:12.339Z,101121.34
2023-02-28T13:42:40.745Z,101121.48
2023-02-28T13:45:08.999Z,101119.98
2023-02-28T13:47:49.744Z,101120.98
2023-02-28T13:50:39.095Z,101120.09
2023-02-28T13:53:16.348Z,101117.26
2023-02-28T13:55:45.964Z,101122.42
2023-02-28T13:58:18.243Z,101119.39
2023-02-28T14:01:05.804Z,101119.59
2023-02-28T14:03:50.239Z,101120.45
2023-02-28T14:06:18.614Z,101122.10
2023-02-28T14:09:09.274Z,101118.90
2023-02-28T14:11:40.426Z,101112.83
2023-02-28T14:14:09.591Z,101116.67
2023-02-28T14:16:42.144Z,101114.80
2023-02-28T14:19:16.988Z,101117.81
2023-02-28T14:21:49.999Z,101117.79
2023-02-28T14:25:00.612Z,101116.21
2023-02-28T14:27:28.996Z,101115.58
2023-02-28T14:30:16.190Z,101113.93
2023-02-28T14:33:09.739Z,101113.92
2023-02-28T14:35:41.115Z,101117.84
2023-02-28T14:38:14.919Z,101115.29
2023-02-28T14:40:43.179Z,101114.31
2023-02-28T14:43:22.893Z,101106.52
2023-02-28T14:45:51.918Z,101107.66
2023-02-28T14:48:20.259Z,101108.56
2023-02-28T14:50:59.182Z,101109.95
2023-02-28T14:53:28.737Z,101106.50
2023-02-28T14:55:57.520Z,101105.27
2023-02-28T14:58:32.391Z,101103.73
2023-02-28T15:01:03.122Z,101102.08
2023-02-28T15:03:31.756Z,101103.30
2023-02-28T15:06:01.301Z,101102.58
2023-02-28T15:08:30.454Z,101102.46
2023-02-28T15:10:59.771Z,101103.08
2023-02-28T15:13:41.247Z,101096.52
2023-02-28T15:16:33.027Z,101094.35
2023-02-28T15:19:02.109Z,101090.50
2023-02-28T15:21:37.914Z,101091.89
2023-02-28T15:24:06.436Z,101090.62
2023-02-28T15:26:35.562Z,101092.50
2023-02-28T15:29:07.927Z,101090.49
2023-02-28T15:31:56.147Z,101088.66
2023-02-28T15:34:37.070Z,101090.14
2023-02-28T15:37:28.307Z,101087.80
2023-02-28T15:39:57.018Z,101092.30
2023-02-28T15:42:29.151Z,101093.59
2023-02-28T15:44:58.543Z,101095.73
2023-02-28T15:47:30.594Z,101099.52
2023-02-28T15:50:07.291Z,101101.51
2023-02-28T15:52:41.987Z,101100.48
2023-02-28T15:55:30.208Z,101099.35
2023-02-28T15:58:01.980Z,101099.77
2023-02-28T16:00:30.843Z,101105.84
2023-02-28T16:03:01.245Z,101105.58
2023-02-28T16:05:32.943Z,101101.41
2023-02-28T16:08:02.919Z,101100.77
2023-02-28T16:10:33.664Z,101104.65
2023-02-28T16:13:03.237Z,101104.35
2023-02-28T16:15:42.630Z,101106.73
2023-02-28T16:18:12.608Z,101106.74
2023-02-28T16:20:40.911Z,101107.42
2023-02-28T16:23:09.387Z,101115.04
2023-02-28T16:25:38.684Z,101115.96
2023-02-28T16:28:14.400Z,101112.32
2023-02-28T16:30:43.372Z,101116.31
2023-02-28T16:33:13.929Z,101115.70
2023-02-28T16:35:43.062Z,101110.04
2023-02-28T16:38:11.401Z,101110.57
2023-02-28T16:40:40.131Z,101108.30
2023-02-28T16:43:10.351Z,101111.79
2023-02-28T16:45:40.270Z,101113.98
2023-02-28T16:48:09.793Z,101110.77
2023-02-28T16:50:37.999Z,101113.25
2023-02-28T16:53:06.368Z,101110.50
2023-02-28T16:55:38.184Z,101111.13
2023-02-28T16:58:07.758Z,101110.02
2023-02-28T17:00:36.130Z,101113.27
2023-02-28T17:03:06.593Z,101111.25
2023-02-28T17:05:38.905Z,101112.27
2023-02-28T17:08:07.192Z,101115.04
2023-02-28T17:10:35.773Z,101109.34
2023-02-28T17:13:14.541Z,101102.70
2023-02-28T17:15:46.276Z,101103.20
2023-02-28T17:18:15.852Z,101102.23
2023-02-28T17:20:46.383Z,101105.35
2023-02-28T17:23:14.713Z,101099.88
2023-02-28T17:25:56.373Z,101106.48
2023-02-28T17:28:26.275Z,101106.19
2023-02-28T17:30:54.669Z,101100.92
2023-02-28T17:33:23.659Z,101103.76
2023-02-28T17:35:52.171Z,101104.17
2023-02-28T17:38:20.859Z,101104.64
2023-02-28T17:40:49.169Z,101108.16
2023-02-28T17:43:17.511Z,101105.78
2023-02-28T17:45:45.960Z,101107.34
2023-02-28T17:48:15.248Z,101105.38
2023-02-28T17:50:43.527Z,101103.53
2023-02-28T17:53:13.643Z,101105.30
2023-02-28T17:55:42.160Z,101099.64
2023-02-28T17:58:10.875Z,101101.61
2023-02-28T18:00:40.077Z,101103.98
2023-02-28T18:03:09.286Z,101106.70
2023-02-28T18:05:39.547Z,101103.94
2023-02-28T18:08:10.585Z,101108.23
2023-02-28T18:10:41.733Z,101108.64
2023-02-28T18:13:13.699Z,101110.86
2023-02-28T18:15:42.185Z,101106.31
2023-02-28T18:18:10.469Z,101112.02
2023-02-28T18:20:38.746Z,101107.48
2023-02-28T18:23:07.445Z,101106.01
2023-02-28T18:25:35.677Z,101103.55
2023-02-28T18:28:05.101Z,101103.78
2023-02-28T18:30:33.628Z,101101.16
2023-02-28T18:33:02.242Z,101105.84
2023-02-28T18:35:36.870Z,101103.09
2023-02-28T18:38:07.160Z,101104.55
2023-02-28T18:40:35.617Z,101107.34
2023-02-28T18:43:04.212Z,101115.02
2023-02-28T18:45:32.777Z,101117.63
2023-02-28T18:48:01.739Z,101117.61
2023-02-28T18:50:30.454Z,101118.44
2023-02-28T18:52:59.485Z,101116.48
2023-02-28T18:55:28.014Z,101117.19
2023-02-28T18:57:56.315Z,101115.71
2023-02-28T19:00:26.007Z,101117.30
2023-02-28T19:02:54.718Z,101117.77
2023-02-28T19:05:25.336Z,101112.73
2023-02-28T19:07:53.554Z,101109.91
2023-02-28T19:10:22.302Z,101108.12
2023-02-28T19:12:50.642Z,101108.29
2023-02-28T19:15:19.475Z,101111.39
2023-02-28T19:17:47.963Z,101112.27
2023-02-28T19:20:16.860Z,101115.49
2023-02-28T19:22:45.737Z,101117.73
2023-02-28T19:25:13.927Z,101111.84
2023-02-28T19:27:43.368Z,101111.50
2023-02-28T19:30:12.840Z,101112.76
2023-02-28T19:32:41.214Z,101110.80
2023-02-28T19:35:09.716Z,101112.58
2023-02-28T19:37:40.078Z,101111.48
2023-02-28T19:40:09.329Z,101109.86
2023-02-28T19:42:37.648Z,101109.33
2023-02-28T19:45:07.093Z,101111.71
2023-02-28T19:47:38.591Z,101106.70
2023-02-28T19:50:07.719Z,101106.95
2023-02-28T19:52:36.099Z,101109.39
2023-02-28T19:55:05.422Z,101104.44
2023-02-28T19:57:34.007Z,101104.98
2023-02-28T20:00:02.400Z,101105.97
2023-02-28T20:02:41.279Z,101097.48
2023-02-28T20:05:10.419Z,101092.94
2023-02-28T20:07:38.938Z,101091.45
2023-02-28T20:10:07.398Z,101089.63
2023-02-28T20:12:35.959Z,101095.33
2023-02-28T20:15:04.747Z,101096.35
2023-02-28T20:17:37.023Z,101102.34
2023-02-28T20:20:06.070Z,101096.11
2023-02-28T20:22:35.214Z,101091.83
2023-02-28T20:25:05.573Z,101092.29
2023-02-28T20:27:35.369Z,101086.64
2023-02-28T20:30:04.660Z,101089.00
2023-02-28T20:32:33.873Z,101085.91
2023-02-28T20:35:07.259Z,101082.46
2023-02-28T20:37:35.819Z,101081.95
2023-02-28T20:40:04.752Z,101082.96
2023-02-28T20:42:33.441Z,101080.39
2023-02-28T20:45:04.073Z,101073.92
2023-02-28T20:47:32.660Z,101068.80
2023-02-28T20:50:01.109Z,101066.37
2023-02-28T20:52:29.765Z,101069.55
2023-02-28T20:54:59.036Z,101073.08
2023-02-28T20:57:31.295Z,101074.08
2023-02-28T20:59:59.580Z,101078.52
2023-02-28T21:02:28.509Z,101077.31
2023-02-28T21:04:56.996Z,101079.16
2023-02-28T21:07:26.411Z,101077.55
2023-02-28T21:09:55.047Z,101072.11
2023-02-28T21:12:23.476Z,101069.98
2023-02-28T21:14:52.054Z,101068.11
2023-02-28T21:17:21.857Z,101066.90
2023-02-28T21:19:50.397Z,101071.27
2023-02-28T21:22:20.036Z,101069.62
2023-02-28T21:24:48.303Z,101073.31
2023-02-28T21:27:16.591Z,101069.23
2023-02-28T21:29:45.394Z,101068.77
2023-02-28T21:32:14.834Z,101067.72
2023-02-28T21:34:43.483Z,101068.06
2023-02-28T21:37:11.748Z,101069.14
2023-02-28T21:39:40.076Z,101070.38
2023-02-28T21:42:08.602Z,101067.77
2023-02-28T21:44:36.952Z,101063.67
2023-02-28T21:47:05.674Z,101059.62
2023-02-28T21:49:35.249Z,101051.77
2023-02-28T21:52:03.379Z,101055.80
2023-02-28T21:54:31.775Z,101054.62
2023-02-28T21:57:02.114Z,101058.39
2023-02-28T21:59:30.594Z,101059.30
2023-02-28T22:01:58.897Z,101055.66
2023-02-28T22:04:27.413Z,101056.62
2023-02-28T22:06:57.490Z,101048.42
2023-02-28T22:09:26.299Z,101043.88
2023-02-28T22:11:55.544Z,101040.63
2023-02-28T22:14:24.757Z,101038.17
2023-02-28T22:16:55.025Z,101038.66
2023-02-28T22:19:23.949Z,101035.02
2023-02-28T22:21:53.998Z,101024.86
2023-02-28T22:24:24.827Z,101017.46
2023-02-28T22:26:53.347Z,101009.02
2023-02-28T22:29:21.744Z,101004.30
2023-02-28T22:31:50.270Z,101002.33
2023-02-28T22:34:20.188Z,101000.98
2023-02-28T22:36:48.708Z,100995.26
2023-02-28T22:39:16.971Z,100992.73
2023-02-28T22:41:45.184Z,100989.90
2023-02-28T22:44:18.613Z,100991.39
2023-02-28T22:46:47.222Z,100991.30
2023-02-28T22:49:15.851Z,100991.35
2023-02-28T22:51:44.281Z,100991.04
2023-02-28T22:54:12.545Z,100992.93
2023-02-28T22:56:40.873Z,100990.36
2023-02-28T22:59:10.551Z,100989.95
2023-02-28T23:01:39.106Z,100990.34
2023-02-28T23:04:07.412Z,100984.18
2023-02-28T23:06:38.285Z,100981.14
2023-02-28T23:09:06.921Z,100979.58
2023-02-28T23:11:37.225Z,100980.34
2023-02-28T23:14:06.117Z,100983.09
2023-02-28T23:16:40.454Z,100981.47
2023-02-28T23:19:12.549Z,100986.88
2023-02-28T23:21:41.744Z,100982.90
2023-02-28T23:24:12.960Z,100984.52
2023-02-28T23:26:43.966Z,100980.17
2023-02-28T23:29:13.092Z,100976.40
2023-02-28T23:31:41.416Z,100975.55
2023-02-28T23:34:09.940Z,100972.11
2023-02-28T23:36:39.189Z,100972.36
2023-02-28T23:39:07.582Z,100974.05
2023-02-28T23:41:35.843Z,100969.13
2023-02-28T23:44:04.328Z,100969.48
2023-02-28T23:46:33.002Z,100964.03
2023-02-28T23:49:01.532Z,100954.45
2023-02-28T23:51:29.961Z,100953.13
2023-02-28T23:53:58.235Z,100952.44
2023-02-28T23:56:26.513Z,100945.16
2023-02-28T23:58:55.601Z,100938.83
